Time;durP1;ratioP1;P1;durP2;ratioP2;P2;SDS_P1;SDS_P2;PMS_P1;PMS_P2;Temp;Humidity;BMP_temperature;BMP_pressure;BME280_temperature;BME280_humidity;BME280_pressure;Samples;Min_cycle;Max_cycle;Signal;HPM_P1;HPM_P2
2022/10/26 00:01:40;;;;;;;0.10;0.10;;;;;;;;;;1831763;78;26343;-57
2022/10/26 00:04:07;;;;;;;0.00;0.00;;;;;;;;;;1830237;77;26278;-57
2022/10/26 00:06:34;;;;;;;0.10;0.10;;;;;;;;;;1825389;76;26195;-57
2022/10/26 00:09:02;;;;;;;0.10;0.10;;;;;;;;;;1831622;78;26675;-57
2022/10/26 00:11:29;;;;;;;0.20;0.20;;;;;;;;;;1831245;77;26368;-57
2022/10/26 00:13:56;;;;;;;0.30;0.30;;;;;;;;;;1832059;78;26194;-57
2022/10/26 00:16:25;;;;;;;0.03;0.03;;;;;;;;;;1831462;78;26242;-57
2022/10/26 00:18:53;;;;;;;0.10;0.10;;;;;;;;;;1831466;76;26349;-57
2022/10/26 00:21:20;;;;;;;0.10;0.10;;;;;;;;;;1831756;78;26245;-57
2022/10/26 00:23:48;;;;;;;0.20;0.20;;;;;;;;;;1829842;77;26246;-57
2022/10/26 00:26:15;;;;;;;0.10;0.10;;;;;;;;;;1826887;77;26214;-57
2022/10/26 00:28:42;;;;;;;0.03;0.03;;;;;;;;;;1831335;76;26727;-57
2022/10/26 00:31:11;;;;;;;0.20;0.10;;;;;;;;;;1831451;77;26431;-55
2022/10/26 00:33:38;;;;;;;0.05;0.05;;;;;;;;;;1864050;75;26336;-58
2022/10/26 00:36:08;;;;;;;0.23;0.23;;;;;;;;;;1831669;78;26622;-57
2022/10/26 00:38:36;;;;;;;0.00;0.00;;;;;;;;;;1828642;77;26298;-57
2022/10/26 00:41:04;;;;;;;0.20;0.20;;;;;;;;;;1857996;75;26707;-56
2022/10/26 00:43:33;;;;;;;0.10;0.10;;;;;;;;;;1818127;77;26831;-57
2022/10/26 00:46:02;;;;;;;0.10;0.10;;;;;;;;;;1822167;78;26763;-57
2022/10/26 00:48:31;;;;;;;0.23;0.10;;;;;;;;;;1822270;77;26241;-57
2022/10/26 00:51:00;;;;;;;0.10;0.10;;;;;;;;;;1823746;77;26218;-56
2022/10/26 00:53:28;;;;;;;0.10;0.10;;;;;;;;;;1823391;78;26705;-58
2022/10/26 00:55:55;;;;;;;0.10;0.10;;;;;;;;;;1816669;78;26232;-57
2022/10/26 00:58:24;;;;;;;0.03;0.03;;;;;;;;;;1820466;78;26749;-57
2022/10/26 01:00:52;;;;;;;0.10;0.10;;;;;;;;;;1833108;77;26536;-58
2022/10/26 01:03:20;;;;;;;0.68;0.20;;;;;;;;;;1863390;75;26356;-57
2022/10/26 01:05:48;;;;;;;0.10;0.10;;;;;;;;;;1863822;75;26739;-56
2022/10/26 01:08:16;;;;;;;0.05;0.03;;;;;;;;;;1862323;77;26386;-57
2022/10/26 01:10:44;;;;;;;0.20;0.20;;;;;;;;;;1862558;76;26279;-58
2022/10/26 01:13:12;;;;;;;0.10;0.10;;;;;;;;;;1864193;75;26262;-57
2022/10/26 01:15:41;;;;;;;0.10;0.10;;;;;;;;;;1865589;75;26384;-57
2022/10/26 01:18:10;;;;;;;0.08;0.08;;;;;;;;;;1858831;75;26733;-54
2022/10/26 01:20:39;;;;;;;0.10;0.10;;;;;;;;;;1860717;75;27709;-57
2022/10/26 01:23:14;;;;;;;0.20;0.20;;;;;;;;;;1863991;75;26726;-57
2022/10/26 01:25:45;;;;;;;0.05;0.05;;;;;;;;;;1860602;77;26267;-56
2022/10/26 01:28:14;;;;;;;0.00;0.00;;;;;;;;;;1860969;75;26719;-55
2022/10/26 01:30:43;;;;;;;0.10;0.10;;;;;;;;;;1862838;75;26850;-53
2022/10/26 01:33:15;;;;;;;0.10;0.10;;;;;;;;;;1864588;75;26676;-56
2022/10/26 01:35:52;;;;;;;0.20;0.20;;;;;;;;;;1864741;75;26275;-56
2022/10/26 01:38:31;;;;;;;0.13;0.13;;;;;;;;;;1831457;77;26720;-55
2022/10/26 01:41:00;;;;;;;0.17;0.17;;;;;;;;;;1818661;77;26231;-55
2022/10/26 01:43:29;;;;;;;0.10;0.10;;;;;;;;;;1818295;78;26314;-56
2022/10/26 01:45:57;;;;;;;0.10;0.10;;;;;;;;;;1854058;76;26207;-55
2022/10/26 01:48:25;;;;;;;0.10;0.10;;;;;;;;;;1859555;76;26663;-57
2022/10/26 01:50:53;;;;;;;0.10;0.10;;;;;;;;;;1863008;75;26771;-56
2022/10/26 01:53:20;;;;;;;0.20;0.20;;;;;;;;;;1863773;75;26262;-57
2022/10/26 01:55:49;;;;;;;0.10;0.10;;;;;;;;;;1863997;75;26317;-57
2022/10/26 01:58:21;;;;;;;0.35;0.15;;;;;;;;;;1864242;75;26282;-54
2022/10/26 02:01:00;;;;;;;0.10;0.10;;;;;;;;;;1864841;75;26247;-55
2022/10/26 02:03:32;;;;;;;0.20;0.20;;;;;;;;;;1863423;75;26335;-55
2022/10/26 02:06:01;;;;;;;0.10;0.10;;;;;;;;;;1864255;75;26278;-58
2022/10/26 02:08:42;;;;;;;0.05;0.05;;;;;;;;;;1862705;75;26278;-56
2022/10/26 02:11:27;;;;;;;0.10;0.10;;;;;;;;;;1859775;75;26677;-56
2022/10/26 02:13:59;;;;;;;0.20;0.20;;;;;;;;;;1849916;75;26270;-55
2022/10/26 02:16:46;;;;;;;0.03;0.03;;;;;;;;;;1830323;77;26325;-51
2022/10/26 02:19:18;;;;;;;0.10;0.10;;;;;;;;;;1862585;75;26330;-57
2022/10/26 02:21:46;;;;;;;0.05;0.05;;;;;;;;;;1831662;77;26259;-54
2022/10/26 02:24:15;;;;;;;0.10;0.10;;;;;;;;;;1829705;77;26264;-55
2022/10/26 02:26:44;;;;;;;0.15;0.10;;;;;;;;;;1819473;77;26229;-57
2022/10/26 02:29:13;;;;;;;0.20;0.08;;;;;;;;;;1824208;77;26367;-54
2022/10/26 02:31:41;;;;;;;0.10;0.10;;;;;;;;;;1820494;77;26269;-56
2022/10/26 02:34:10;;;;;;;0.10;0.10;;;;;;;;;;1815689;77;26287;-55
2022/10/26 02:36:39;;;;;;;0.17;0.17;;;;;;;;;;1845724;76;26260;-56
2022/10/26 02:39:07;;;;;;;0.08;0.08;;;;;;;;;;1849598;76;26265;-55
2022/10/26 02:41:35;;;;;;;0.10;0.10;;;;;;;;;;1817361;77;26657;-54
2022/10/26 02:44:04;;;;;;;0.10;0.10;;;;;;;;;;1799149;77;26217;-57
2022/10/26 02:46:31;;;;;;;0.10;0.10;;;;;;;;;;1850422;77;26287;-56
2022/10/26 02:48:59;;;;;;;0.80;0.10;;;;;;;;;;1853325;76;26771;-57
2022/10/26 02:51:34;;;;;;;0.10;0.10;;;;;;;;;;1868554;76;26271;-57
2022/10/26 02:54:12;;;;;;;0.10;0.10;;;;;;;;;;1816074;78;26228;-54
2022/10/26 02:56:46;;;;;;;0.10;0.10;;;;;;;;;;1848327;76;26310;-55
2022/10/26 02:59:14;;;;;;;0.10;0.10;;;;;;;;;;1812867;79;26288;-57
2022/10/26 03:01:42;;;;;;;0.30;0.10;;;;;;;;;;1812035;77;26321;-57
2022/10/26 03:04:09;;;;;;;0.30;0.10;;;;;;;;;;1818012;77;26234;-56
2022/10/26 03:06:37;;;;;;;0.15;0.13;;;;;;;;;;1812885;78;26212;-57
2022/10/26 03:09:04;;;;;;;0.10;0.10;;;;;;;;;;1811325;77;26292;-54
2022/10/26 03:11:31;;;;;;;0.10;0.10;;;;;;;;;;1810782;79;26174;-57
2022/10/26 03:13:58;;;;;;;1.50;0.20;;;;;;;;;;1817321;77;26298;-54
2022/10/26 03:16:26;;;;;;;0.88;0.10;;;;;;;;;;1849526;76;26251;-54
2022/10/26 03:18:53;;;;;;;0.35;0.10;;;;;;;;;;1849782;76;26273;-54
2022/10/26 03:21:20;;;;;;;1.30;0.10;;;;;;;;;;1809364;77;26221;-57
2022/10/26 03:23:49;;;;;;;0.08;0.08;;;;;;;;;;1803210;77;26261;-55
2022/10/26 03:26:16;;;;;;;0.10;0.10;;;;;;;;;;1817318;78;26245;-55
2022/10/26 03:28:43;;;;;;;0.13;0.13;;;;;;;;;;1817200;77;26236;-54
2022/10/26 03:31:11;;;;;;;0.05;0.05;;;;;;;;;;1810435;77;26246;-54
2022/10/26 03:33:38;;;;;;;0.10;0.10;;;;;;;;;;1801932;77;26321;-57
2022/10/26 03:36:06;;;;;;;0.17;0.17;;;;;;;;;;1790851;79;26298;-55
2022/10/26 03:38:33;;;;;;;0.10;0.10;;;;;;;;;;1790828;78;26294;-56
2022/10/26 03:41:01;;;;;;;0.10;0.10;;;;;;;;;;1813486;78;26262;-55
2022/10/26 03:43:28;;;;;;;0.10;0.10;;;;;;;;;;1794228;78;26576;-53
2022/10/26 03:45:55;;;;;;;0.00;0.00;;;;;;;;;;1785655;80;26352;-54
2022/10/26 03:48:22;;;;;;;0.00;0.00;;;;;;;;;;1788288;79;26215;-57
2022/10/26 03:50:50;;;;;;;0.00;0.00;;;;;;;;;;1785392;80;26269;-55
2022/10/26 03:53:17;;;;;;;0.62;0.10;;;;;;;;;;1789535;78;26279;-55
2022/10/26 03:55:44;;;;;;;0.10;0.10;;;;;;;;;;1789581;78;26254;-56
2022/10/26 03:58:12;;;;;;;0.00;0.00;;;;;;;;;;1820654;78;26696;-55
2022/10/26 04:00:39;;;;;;;0.10;0.10;;;;;;;;;;1837308;78;26576;-57
2022/10/26 04:03:06;;;;;;;2.45;0.10;;;;;;;;;;1819039;78;26221;-57
2022/10/26 04:05:33;;;;;;;0.10;0.10;;;;;;;;;;1765842;79;26333;-55
2022/10/26 04:08:04;;;;;;;0.10;0.10;;;;;;;;;;1795062;78;26316;-55
2022/10/26 04:10:31;;;;;;;0.10;0.10;;;;;;;;;;1790636;80;26294;-57
2022/10/26 04:13:00;;;;;;;0.00;0.00;;;;;;;;;;1806118;78;26231;-57
2022/10/26 04:15:28;;;;;;;1.65;0.17;;;;;;;;;;1785559;79;26381;-58
2022/10/26 04:17:59;;;;;;;0.03;0.03;;;;;;;;;;1793140;78;26868;-58
2022/10/26 04:20:27;;;;;;;0.20;0.13;;;;;;;;;;1789911;79;26693;-57
2022/10/26 04:22:58;;;;;;;0.10;0.10;;;;;;;;;;1789403;78;26427;-56
2022/10/26 04:25:25;;;;;;;0.10;0.10;;;;;;;;;;1790223;78;26689;-57
2022/10/26 04:27:52;;;;;;;0.10;0.10;;;;;;;;;;1789178;78;26352;-56
2022/10/26 04:30:20;;;;;;;0.10;0.10;;;;;;;;;;1787988;78;26341;-56
2022/10/26 04:32:47;;;;;;;0.20;0.17;;;;;;;;;;1789540;78;26398;-57
2022/10/26 04:35:14;;;;;;;0.70;0.20;;;;;;;;;;1794766;78;26890;-57
2022/10/26 04:37:42;;;;;;;0.10;0.10;;;;;;;;;;1795830;78;26379;-55
2022/10/26 04:40:10;;;;;;;0.10;0.10;;;;;;;;;;1797342;78;26262;-56
2022/10/26 04:42:40;;;;;;;0.10;0.10;;;;;;;;;;1797943;78;26279;-58
2022/10/26 04:45:08;;;;;;;0.10;0.10;;;;;;;;;;1785468;79;26230;-57
2022/10/26 04:47:36;;;;;;;0.33;0.20;;;;;;;;;;1787167;79;27424;-57
2022/10/26 04:50:04;;;;;;;0.10;0.10;;;;;;;;;;1784197;79;26344;-56
2022/10/26 04:52:31;;;;;;;0.20;0.20;;;;;;;;;;1787552;79;27355;-56
2022/10/26 04:54:59;;;;;;;0.72;0.13;;;;;;;;;;1786957;79;26218;-57
2022/10/26 04:57:26;;;;;;;1.35;0.23;;;;;;;;;;1786106;79;26360;-57
2022/10/26 04:59:53;;;;;;;0.17;0.17;;;;;;;;;;1788552;79;26383;-57
2022/10/26 05:02:20;;;;;;;1.20;0.10;;;;;;;;;;1787264;79;26740;-53
2022/10/26 05:04:48;;;;;;;1.62;0.10;;;;;;;;;;1789586;79;26627;-56
2022/10/26 05:07:15;;;;;;;2.17;0.20;;;;;;;;;;1782776;78;26366;-57
2022/10/26 05:09:42;;;;;;;0.45;0.20;;;;;;;;;;1793406;79;26385;-57
2022/10/26 05:12:10;;;;;;;0.30;0.10;;;;;;;;;;1787808;79;26887;-58
2022/10/26 05:14:37;;;;;;;0.13;0.13;;;;;;;;;;1786658;79;26414;-57
2022/10/26 05:17:04;;;;;;;0.10;0.10;;;;;;;;;;1788819;79;26278;-57
2022/10/26 05:19:32;;;;;;;0.93;0.15;;;;;;;;;;1787788;79;26876;-54
2022/10/26 05:21:59;;;;;;;1.47;0.30;;;;;;;;;;1787762;79;26824;-58
2022/10/26 05:24:26;;;;;;;0.13;0.13;;;;;;;;;;1788618;79;26553;-56
2022/10/26 05:26:53;;;;;;;0.72;0.25;;;;;;;;;;1788607;79;26352;-57
2022/10/26 05:29:21;;;;;;;0.47;0.10;;;;;;;;;;1786350;79;26285;-58
2022/10/26 05:31:48;;;;;;;0.30;0.20;;;;;;;;;;1787645;79;26287;-52
2022/10/26 05:34:15;;;;;;;1.12;0.50;;;;;;;;;;1793394;77;26247;-56
2022/10/26 05:36:42;;;;;;;1.42;0.20;;;;;;;;;;1792842;78;26279;-56
2022/10/26 05:39:10;;;;;;;0.78;0.20;;;;;;;;;;1794320;78;26275;-54
2022/10/26 05:41:37;;;;;;;0.57;0.10;;;;;;;;;;1811784;78;26286;-55
2022/10/26 05:44:04;;;;;;;0.88;0.20;;;;;;;;;;1795250;78;26818;-57
2022/10/26 05:46:31;;;;;;;1.45;0.35;;;;;;;;;;1793440;78;26727;-56
2022/10/26 05:48:59;;;;;;;1.22;0.20;;;;;;;;;;1804386;77;26400;-55
2022/10/26 05:51:26;;;;;;;3.40;0.20;;;;;;;;;;1805457;78;26344;-58
2022/10/26 05:53:53;;;;;;;0.65;0.20;;;;;;;;;;1798126;77;26243;-55
2022/10/26 05:56:22;;;;;;;0.17;0.17;;;;;;;;;;1791301;78;26259;-54
2022/10/26 05:58:50;;;;;;;0.30;0.30;;;;;;;;;;1797951;77;26326;-55
2022/10/26 06:01:21;;;;;;;0.78;0.17;;;;;;;;;;1774119;78;27128;-56
2022/10/26 06:03:50;;;;;;;0.80;0.28;;;;;;;;;;1792066;78;26335;-57
2022/10/26 06:06:17;;;;;;;0.78;0.30;;;;;;;;;;1773793;78;26258;-57
2022/10/26 06:08:45;;;;;;;0.10;0.10;;;;;;;;;;1795366;78;26724;-57
2022/10/26 06:11:12;;;;;;;0.20;0.20;;;;;;;;;;1793607;77;26263;-56
2022/10/26 06:13:40;;;;;;;0.20;0.20;;;;;;;;;;1793648;78;26258;-57
2022/10/26 06:16:21;;;;;;;0.78;0.20;;;;;;;;;;1798298;78;26254;-58
2022/10/26 06:18:55;;;;;;;1.00;0.17;;;;;;;;;;1778179;78;26844;-56
2022/10/26 06:21:27;;;;;;;0.00;0.00;;;;;;;;;;1790293;78;26279;-57
2022/10/26 06:24:02;;;;;;;0.10;0.10;;;;;;;;;;1792397;78;26357;-55
2022/10/26 06:26:40;;;;;;;0.15;0.15;;;;;;;;;;1789995;78;26723;-57
2022/10/26 06:29:08;;;;;;;0.10;0.10;;;;;;;;;;1793830;78;26269;-55
2022/10/26 06:31:36;;;;;;;0.00;0.00;;;;;;;;;;1798408;78;26333;-57
2022/10/26 06:34:03;;;;;;;1.45;0.20;;;;;;;;;;1800315;78;26790;-57
2022/10/26 06:36:31;;;;;;;0.10;0.10;;;;;;;;;;1822394;78;26198;-57
2022/10/26 06:39:00;;;;;;;0.20;0.20;;;;;;;;;;1821404;78;26275;-57
2022/10/26 06:41:27;;;;;;;0.68;0.17;;;;;;;;;;1821101;78;26227;-57
2022/10/26 06:43:55;;;;;;;0.20;0.20;;;;;;;;;;1821936;77;26810;-58
2022/10/26 06:46:24;;;;;;;0.10;0.10;;;;;;;;;;1823200;78;26261;-57
2022/10/26 06:49:02;;;;;;;0.03;0.03;;;;;;;;;;1813405;77;26846;-56
2022/10/26 06:51:30;;;;;;;0.20;0.20;;;;;;;;;;1811885;77;26342;-57
2022/10/26 06:54:08;;;;;;;0.13;0.10;;;;;;;;;;1817204;77;26273;-54
2022/10/26 06:56:36;;;;;;;1.15;0.20;;;;;;;;;;1798385;78;26262;-56
2022/10/26 06:59:10;;;;;;;0.17;0.10;;;;;;;;;;1818931;78;26658;-58
2022/10/26 07:01:38;;;;;;;0.10;0.10;;;;;;;;;;1822067;78;26372;-58
2022/10/26 07:04:05;;;;;;;0.00;0.00;;;;;;;;;;1821365;77;26250;-57
2022/10/26 07:06:32;;;;;;;0.30;0.20;;;;;;;;;;1822534;77;26266;-57
2022/10/26 07:08:59;;;;;;;0.08;0.08;;;;;;;;;;1818374;77;26253;-56
2022/10/26 07:11:27;;;;;;;1.22;0.17;;;;;;;;;;1834050;76;26211;-58
2022/10/26 07:13:54;;;;;;;0.10;0.10;;;;;;;;;;1821256;77;26271;-55
2022/10/26 07:16:22;;;;;;;3.92;0.10;;;;;;;;;;1804633;78;27622;-57
2022/10/26 07:18:49;;;;;;;0.85;0.20;;;;;;;;;;1807818;78;26348;-56
2022/10/26 07:21:17;;;;;;;0.20;0.20;;;;;;;;;;1826891;77;26666;-57
2022/10/26 07:23:44;;;;;;;0.17;0.17;;;;;;;;;;1831942;78;26675;-57
2022/10/26 07:26:11;;;;;;;3.92;0.50;;;;;;;;;;1831247;77;26287;-51
2022/10/26 07:28:39;;;;;;;0.62;0.20;;;;;;;;;;1832130;77;27628;-47
2022/10/26 07:31:06;;;;;;;0.50;0.10;;;;;;;;;;1826550;78;26681;-51
2022/10/26 07:33:33;;;;;;;1.00;0.13;;;;;;;;;;1861972;76;26231;-50
2022/10/26 07:36:01;;;;;;;0.23;0.23;;;;;;;;;;1829737;76;26273;-53
2022/10/26 07:38:28;;;;;;;1.75;0.37;;;;;;;;;;1880330;74;26542;-52
2022/10/26 07:40:55;;;;;;;0.37;0.35;;;;;;;;;;1878567;75;26229;-48
2022/10/26 07:43:22;;;;;;;3.50;0.40;;;;;;;;;;1878080;75;26224;-52
2022/10/26 07:45:50;;;;;;;2.33;0.40;;;;;;;;;;1878441;75;26240;-50
2022/10/26 07:48:17;;;;;;;3.80;0.70;;;;;;;;;;1878577;75;26259;-52
2022/10/26 07:50:45;;;;;;;1.37;0.53;;;;;;;;;;1878986;75;26789;-50
2022/10/26 07:53:12;;;;;;;2.87;0.55;;;;;;;;;;1879638;75;26647;-49
2022/10/26 07:55:39;;;;;;;7.28;0.55;;;;;;;;;;1877943;75;26326;-51
2022/10/26 07:58:07;;;;;;;3.83;0.62;;;;;;;;;;1878875;75;26296;-51
2022/10/26 08:00:34;;;;;;;3.30;0.65;;;;;;;;;;1877886;75;26329;-54
2022/10/26 08:03:01;;;;;;;4.60;0.70;;;;;;;;;;1859045;75;26276;-52
2022/10/26 08:05:28;;;;;;;4.05;0.72;;;;;;;;;;1878224;75;26233;-56
2022/10/26 08:07:56;;;;;;;6.08;0.60;;;;;;;;;;1873442;75;26276;-47
2022/10/26 08:10:23;;;;;;;8.55;0.75;;;;;;;;;;1878436;75;26255;-48
2022/10/26 08:12:51;;;;;;;3.83;0.70;;;;;;;;;;1878390;75;26261;-52
2022/10/26 08:15:19;;;;;;;6.60;0.70;;;;;;;;;;1877838;75;26673;-50
2022/10/26 08:17:46;;;;;;;3.12;0.70;;;;;;;;;;1865941;75;26393;-49
2022/10/26 08:20:13;;;;;;;1.25;0.45;;;;;;;;;;1878559;75;26253;-53
2022/10/26 08:22:41;;;;;;;3.80;0.60;;;;;;;;;;1877930;75;26221;-50
2022/10/26 08:25:08;;;;;;;6.05;0.60;;;;;;;;;;1878002;75;26364;-46
2022/10/26 08:27:35;;;;;;;4.28;0.60;;;;;;;;;;1890131;74;26226;-49
2022/10/26 08:30:03;;;;;;;1.45;0.65;;;;;;;;;;1874340;75;26347;-48
2022/10/26 08:32:30;;;;;;;2.35;0.50;;;;;;;;;;1874238;76;26366;-49
2022/10/26 08:34:57;;;;;;;2.00;0.55;;;;;;;;;;1875201;75;26685;-50
2022/10/26 08:37:26;;;;;;;4.75;1.20;;;;;;;;;;1869885;76;26791;-54
2022/10/26 08:39:53;;;;;;;0.30;0.30;;;;;;;;;;1871240;76;26246;-48
2022/10/26 08:42:34;;;;;;;3.95;0.50;;;;;;;;;;1860968;75;26293;-52
2022/10/26 08:45:03;;;;;;;2.83;0.40;;;;;;;;;;1865604;75;26852;-52
2022/10/26 08:47:32;;;;;;;5.90;0.47;;;;;;;;;;1852411;75;26744;-53
2022/10/26 08:50:00;;;;;;;2.42;0.53;;;;;;;;;;1874678;75;26725;-53
2022/10/26 08:52:29;;;;;;;4.67;0.50;;;;;;;;;;1875473;75;26253;-55
2022/10/26 08:54:58;;;;;;;1.55;0.50;;;;;;;;;;1875531;75;26330;-49
2022/10/26 08:57:27;;;;;;;1.52;0.30;;;;;;;;;;1875241;75;26725;-49
2022/10/26 08:59:59;;;;;;;4.45;0.57;;;;;;;;;;1876024;75;27812;-54
2022/10/26 09:02:26;;;;;;;1.25;0.35;;;;;;;;;;1875048;75;26297;-52
2022/10/26 09:04:54;;;;;;;0.88;0.50;;;;;;;;;;1875810;75;26260;-48
2022/10/26 09:07:26;;;;;;;3.20;0.40;;;;;;;;;;1875253;75;26848;-53
2022/10/26 09:09:54;;;;;;;0.95;0.40;;;;;;;;;;1874770;75;26642;-52
2022/10/26 09:12:42;;;;;;;0.42;0.30;;;;;;;;;;1873955;75;26241;-48
2022/10/26 09:15:20;;;;;;;0.20;0.20;;;;;;;;;;1875243;75;26378;-50
2022/10/26 09:17:54;;;;;;;2.85;0.42;;;;;;;;;;1877155;75;26295;-48
2022/10/26 09:20:32;;;;;;;0.57;0.47;;;;;;;;;;1880032;75;26240;-54
2022/10/26 09:23:07;;;;;;;0.37;0.28;;;;;;;;;;1880597;75;27488;-50
2022/10/26 09:25:36;;;;;;;2.37;0.60;;;;;;;;;;1879872;75;26287;-48
2022/10/26 09:28:04;;;;;;;0.57;0.30;;;;;;;;;;1886371;75;26237;-52
2022/10/26 09:30:34;;;;;;;0.30;0.30;;;;;;;;;;1875950;75;26361;-55
2022/10/26 09:33:02;;;;;;;0.42;0.30;;;;;;;;;;1873198;75;26264;-47
2022/10/26 09:35:34;;;;;;;3.22;0.33;;;;;;;;;;1871043;75;26231;-50
2022/10/26 09:38:15;;;;;;;1.85;0.20;;;;;;;;;;1887775;74;26263;-50
2022/10/26 09:40:47;;;;;;;1.72;0.40;;;;;;;;;;1883915;74;26248;-48
2022/10/26 09:43:19;;;;;;;1.42;0.42;;;;;;;;;;1885933;74;26751;-48
2022/10/26 09:45:47;;;;;;;0.60;0.30;;;;;;;;;;1884634;74;26304;-51
2022/10/26 09:48:16;;;;;;;0.68;0.30;;;;;;;;;;1877797;74;26263;-55
2022/10/26 09:50:45;;;;;;;0.40;0.28;;;;;;;;;;1877904;74;26322;-52
2022/10/26 09:53:12;;;;;;;0.33;0.30;;;;;;;;;;1877459;74;26264;-56
2022/10/26 09:55:41;;;;;;;0.40;0.40;;;;;;;;;;1887517;74;26314;-49
2022/10/26 09:58:22;;;;;;;0.47;0.47;;;;;;;;;;1886346;74;26193;-48
2022/10/26 10:00:50;;;;;;;1.37;0.30;;;;;;;;;;1880255;74;26517;-50
2022/10/26 10:03:27;;;;;;;0.40;0.40;;;;;;;;;;1886329;74;26236;-49
2022/10/26 10:06:02;;;;;;;0.40;0.40;;;;;;;;;;1885995;74;26185;-54
2022/10/26 10:08:29;;;;;;;0.20;0.20;;;;;;;;;;1871279;74;26245;-51
2022/10/26 10:11:01;;;;;;;0.75;0.28;;;;;;;;;;1887177;74;26193;-48
2022/10/26 10:13:30;;;;;;;1.42;0.30;;;;;;;;;;1882280;74;26265;-48
2022/10/26 10:15:59;;;;;;;0.45;0.20;;;;;;;;;;1887054;74;26248;-49
2022/10/26 10:18:26;;;;;;;0.37;0.30;;;;;;;;;;1885051;76;26242;-48
2022/10/26 10:20:55;;;;;;;1.85;0.30;;;;;;;;;;1887948;74;26245;-53
2022/10/26 10:23:36;;;;;;;1.10;0.30;;;;;;;;;;1886940;74;26295;-52
2022/10/26 10:26:09;;;;;;;0.17;0.17;;;;;;;;;;1863792;75;26222;-51
2022/10/26 10:28:38;;;;;;;0.30;0.30;;;;;;;;;;1855490;76;26762;-46
2022/10/26 10:31:07;;;;;;;0.62;0.20;;;;;;;;;;1853853;77;26349;-49
2022/10/26 10:33:35;;;;;;;0.45;0.30;;;;;;;;;;1849298;77;26270;-48
2022/10/26 10:36:04;;;;;;;1.15;0.40;;;;;;;;;;1829015;77;26328;-50
2022/10/26 10:38:33;;;;;;;0.37;0.30;;;;;;;;;;1840457;76;26204;-51
2022/10/26 10:41:02;;;;;;;1.00;0.20;;;;;;;;;;1810484;78;26254;-50
2022/10/26 10:43:29;;;;;;;0.60;0.20;;;;;;;;;;1809417;77;26293;-50
2022/10/26 10:45:58;;;;;;;0.20;0.20;;;;;;;;;;1846366;76;26739;-49
2022/10/26 10:48:26;;;;;;;0.45;0.30;;;;;;;;;;1808178;79;26238;-49
2022/10/26 10:50:58;;;;;;;1.12;0.20;;;;;;;;;;1809869;79;26234;-48
2022/10/26 10:53:36;;;;;;;0.20;0.20;;;;;;;;;;1810893;77;26316;-48
2022/10/26 10:56:14;;;;;;;0.20;0.20;;;;;;;;;;1807652;77;26226;-46
2022/10/26 10:58:45;;;;;;;0.20;0.17;;;;;;;;;;1740399;80;26762;-46
2022/10/26 11:01:13;;;;;;;0.30;0.30;;;;;;;;;;1845125;75;26713;-48
2022/10/26 11:03:42;;;;;;;0.42;0.30;;;;;;;;;;1874875;75;26285;-49
2022/10/26 11:06:11;;;;;;;0.70;0.28;;;;;;;;;;1867457;75;26666;-50
2022/10/26 11:08:40;;;;;;;0.20;0.20;;;;;;;;;;1871453;75;26293;-48
2022/10/26 11:11:09;;;;;;;0.20;0.20;;;;;;;;;;1875861;75;26296;-49
2022/10/26 11:13:54;;;;;;;0.53;0.20;;;;;;;;;;1873738;75;26315;-48
2022/10/26 11:16:26;;;;;;;0.17;0.15;;;;;;;;;;1875497;75;26313;-51
2022/10/26 11:19:02;;;;;;;0.23;0.23;;;;;;;;;;1873729;75;26264;-47
2022/10/26 11:21:30;;;;;;;0.20;0.20;;;;;;;;;;1874323;75;26526;-51
2022/10/26 11:24:10;;;;;;;2.95;0.40;;;;;;;;;;1869789;75;26248;-52
2022/10/26 11:26:47;;;;;;;0.20;0.20;;;;;;;;;;1870522;75;26245;-50
2022/10/26 11:29:19;;;;;;;0.35;0.23;;;;;;;;;;1872039;75;26367;-48
2022/10/26 11:31:50;;;;;;;0.10;0.10;;;;;;;;;;1875421;75;26417;-48
2022/10/26 11:34:31;;;;;;;0.25;0.25;;;;;;;;;;1871454;75;26398;-51
2022/10/26 11:36:59;;;;;;;0.10;0.10;;;;;;;;;;1866586;74;26806;-49
2022/10/26 11:39:37;;;;;;;0.10;0.10;;;;;;;;;;1868626;74;26256;-47
2022/10/26 11:42:19;;;;;;;0.28;0.10;;;;;;;;;;1888393;74;26244;-50
2022/10/26 11:45:03;;;;;;;1.12;0.20;;;;;;;;;;1886753;74;26804;-48
2022/10/26 11:47:34;;;;;;;0.10;0.10;;;;;;;;;;1880670;74;26244;-50
2022/10/26 11:50:02;;;;;;;1.22;0.20;;;;;;;;;;1885007;74;26317;-52
2022/10/26 11:52:31;;;;;;;0.20;0.10;;;;;;;;;;1879491;74;26283;-50
2022/10/26 11:55:03;;;;;;;0.10;0.10;;;;;;;;;;1885498;74;26657;-51
2022/10/26 11:57:29;;;;;;;0.10;0.10;;;;;;;;;;1880095;74;26959;-47
2022/10/26 11:59:58;;;;;;;0.10;0.10;;;;;;;;;;1887520;74;26236;-48
2022/10/26 12:02:25;;;;;;;1.27;0.10;;;;;;;;;;1882733;74;26256;-49
2022/10/26 12:04:54;;;;;;;1.20;0.20;;;;;;;;;;1882792;74;26247;-48
2022/10/26 12:07:29;;;;;;;0.95;0.10;;;;;;;;;;1882236;74;26268;-48
2022/10/26 12:09:57;;;;;;;0.08;0.08;;;;;;;;;;1887196;74;26778;-49
2022/10/26 12:12:26;;;;;;;0.00;0.00;;;;;;;;;;1881298;74;26259;-49
2022/10/26 12:14:58;;;;;;;0.10;0.10;;;;;;;;;;1883881;74;26739;-50
2022/10/26 12:17:27;;;;;;;0.10;0.10;;;;;;;;;;1887871;74;26201;-50
2022/10/26 12:19:56;;;;;;;0.70;0.10;;;;;;;;;;1888221;74;26346;-48
2022/10/26 12:22:25;;;;;;;0.10;0.10;;;;;;;;;;1881836;74;26200;-51
2022/10/26 12:25:06;;;;;;;0.10;0.10;;;;;;;;;;1883742;74;26338;-52
2022/10/26 12:27:40;;;;;;;0.00;0.00;;;;;;;;;;1883809;74;26293;-51
2022/10/26 12:30:15;;;;;;;0.10;0.10;;;;;;;;;;1888675;74;26530;-49
2022/10/26 12:32:49;;;;;;;0.15;0.15;;;;;;;;;;1888457;74;26309;-47
2022/10/26 12:35:33;;;;;;;0.45;0.10;;;;;;;;;;1888555;74;26260;-50
2022/10/26 12:38:02;;;;;;;0.10;0.10;;;;;;;;;;1883703;74;26284;-48
2022/10/26 12:40:34;;;;;;;0.15;0.15;;;;;;;;;;1825315;75;26726;-50
2022/10/26 12:43:06;;;;;;;0.10;0.10;;;;;;;;;;1879948;75;26245;-48
2022/10/26 12:45:33;;;;;;;0.10;0.10;;;;;;;;;;1876645;75;26307;-49
2022/10/26 12:48:01;;;;;;;0.10;0.10;;;;;;;;;;1880168;75;26259;-47
2022/10/26 12:50:29;;;;;;;0.20;0.20;;;;;;;;;;1879768;75;26768;-51
2022/10/26 12:52:58;;;;;;;1.07;0.20;;;;;;;;;;1879741;75;26264;-49
2022/10/26 12:55:27;;;;;;;0.10;0.10;;;;;;;;;;1879774;75;26229;-51
2022/10/26 12:57:58;;;;;;;0.10;0.10;;;;;;;;;;1879353;75;26709;-47
2022/10/26 13:00:27;;;;;;;0.85;0.10;;;;;;;;;;1876238;76;26823;-48
2022/10/26 13:03:07;;;;;;;0.10;0.10;;;;;;;;;;1841083;76;26271;-50
2022/10/26 13:05:45;;;;;;;0.20;0.20;;;;;;;;;;1818168;77;26328;-49
2022/10/26 13:08:13;;;;;;;0.20;0.20;;;;;;;;;;1801082;79;26272;-50
2022/10/26 13:10:42;;;;;;;0.20;0.20;;;;;;;;;;1830290;78;26780;-49
2022/10/26 13:13:11;;;;;;;0.20;0.20;;;;;;;;;;1838265;76;26787;-50
2022/10/26 13:15:39;;;;;;;0.15;0.15;;;;;;;;;;1818710;77;26816;-47
2022/10/26 13:18:08;;;;;;;0.20;0.20;;;;;;;;;;1803355;78;26324;-49
2022/10/26 13:20:37;;;;;;;0.30;0.30;;;;;;;;;;1812008;78;26279;-51
2022/10/26 13:23:06;;;;;;;0.08;0.08;;;;;;;;;;1863549;76;26303;-50
2022/10/26 13:25:33;;;;;;;0.30;0.30;;;;;;;;;;1852144;76;26218;-49
2022/10/26 13:28:05;;;;;;;0.20;0.20;;;;;;;;;;1836465;76;26239;-48
2022/10/26 13:30:47;;;;;;;0.20;0.20;;;;;;;;;;1813130;77;26801;-50
2022/10/26 13:33:16;;;;;;;0.20;0.20;;;;;;;;;;1811462;77;26325;-49
2022/10/26 13:35:44;;;;;;;0.20;0.20;;;;;;;;;;1812066;79;26269;-49
2022/10/26 13:38:12;;;;;;;0.70;0.20;;;;;;;;;;1806874;78;26371;-48
2022/10/26 13:40:39;;;;;;;0.23;0.23;;;;;;;;;;1829402;77;26271;-49
2022/10/26 13:43:08;;;;;;;0.30;0.30;;;;;;;;;;1827222;77;26256;-52
2022/10/26 13:45:37;;;;;;;0.20;0.20;;;;;;;;;;1800381;78;26277;-51
2022/10/26 13:48:09;;;;;;;0.25;0.25;;;;;;;;;;1797397;78;26282;-48
2022/10/26 13:50:38;;;;;;;0.30;0.30;;;;;;;;;;1807835;77;26268;-48
2022/10/26 13:53:10;;;;;;;0.30;0.30;;;;;;;;;;1822590;76;26317;-48
2022/10/26 13:55:38;;;;;;;0.20;0.20;;;;;;;;;;1801776;78;26329;-47
2022/10/26 13:58:10;;;;;;;0.30;0.30;;;;;;;;;;1793835;78;26333;-50
2022/10/26 14:00:37;;;;;;;0.40;0.40;;;;;;;;;;1803913;78;26754;-51
2022/10/26 14:03:14;;;;;;;0.10;0.10;;;;;;;;;;1809624;77;26854;-49
2022/10/26 14:05:43;;;;;;;0.30;0.30;;;;;;;;;;1816059;77;26567;-49
2022/10/26 14:08:11;;;;;;;0.30;0.30;;;;;;;;;;1816984;79;26281;-47
2022/10/26 14:10:40;;;;;;;0.40;0.40;;;;;;;;;;1815419;77;26276;-47
2022/10/26 14:13:09;;;;;;;0.30;0.30;;;;;;;;;;1818834;79;26271;-50
2022/10/26 14:15:36;;;;;;;0.20;0.20;;;;;;;;;;1814854;79;26759;-51
2022/10/26 14:18:04;;;;;;;0.30;0.30;;;;;;;;;;1816700;79;26328;-49
2022/10/26 14:20:31;;;;;;;0.30;0.30;;;;;;;;;;1820497;79;26371;-51
2022/10/26 14:22:59;;;;;;;0.20;0.20;;;;;;;;;;1815556;77;26252;-54
2022/10/26 14:25:28;;;;;;;0.40;0.40;;;;;;;;;;1816465;77;26215;-51
2022/10/26 14:27:55;;;;;;;0.25;0.25;;;;;;;;;;1821277;77;26351;-52
2022/10/26 14:30:27;;;;;;;0.30;0.30;;;;;;;;;;1813959;77;26273;-55
2022/10/26 14:32:54;;;;;;;0.20;0.20;;;;;;;;;;1820895;79;26274;-49
2022/10/26 14:35:23;;;;;;;0.20;0.20;;;;;;;;;;1821036;77;26273;-53
2022/10/26 14:38:01;;;;;;;0.20;0.20;;;;;;;;;;1819487;77;26410;-48
2022/10/26 14:40:29;;;;;;;0.20;0.20;;;;;;;;;;1805009;79;26264;-52
2022/10/26 14:42:58;;;;;;;0.30;0.30;;;;;;;;;;1836332;77;26248;-51
2022/10/26 14:45:27;;;;;;;0.30;0.30;;;;;;;;;;1796432;78;26832;-53
2022/10/26 14:47:54;;;;;;;0.30;0.30;;;;;;;;;;1802436;77;26698;-52
2022/10/26 14:50:23;;;;;;;0.30;0.30;;;;;;;;;;1794095;79;26284;-54
2022/10/26 14:52:52;;;;;;;0.28;0.20;;;;;;;;;;1822683;78;26300;-52
2022/10/26 14:55:19;;;;;;;0.20;0.20;;;;;;;;;;1840209;76;27165;-52
2022/10/26 14:57:48;;;;;;;0.10;0.10;;;;;;;;;;1792806;80;26340;-51